createdAt,value
2023-03-06T00:01:17.349Z,100.00
2023-03-06T00:03:46.085Z,100.00
2023-03-06T00:06:15.047Z,100.00
2023-03-06T00:08:43.473Z,100.00
2023-03-06T00:11:15.041Z,100.00
2023-03-06T00:13:43.319Z,100.00
2023-03-06T00:16:12.252Z,100.00
2023-03-06T00:18:41.393Z,100.00
2023-03-06T00:21:09.708Z,100.00
2023-03-06T00:23:38.024Z,100.00
2023-03-06T00:26:08.567Z,100.00
2023-03-06T00:28:37.511Z,100.00
2023-03-06T00:31:05.983Z,100.00
2023-03-06T00:33:34.229Z,100.00
2023-03-06T00:36:05.712Z,100.00
2023-03-06T00:38:35.873Z,100.00
2023-03-06T00:41:09.565Z,100.00
2023-03-06T00:43:38.182Z,100.00
2023-03-06T00:46:07.914Z,100.00
2023-03-06T00:48:37.194Z,100.00
2023-03-06T00:51:07.194Z,100.00
2023-03-06T00:53:35.614Z,100.00
2023-03-06T00:56:03.923Z,100.00
2023-03-06T00:58:32.958Z,100.00
2023-03-06T01:01:01.195Z,100.00
2023-03-06T01:03:29.393Z,100.00
2023-03-06T01:05:58.018Z,100.00
2023-03-06T01:08:26.222Z,100.00
2023-03-06T01:10:57.887Z,100.00
2023-03-06T01:13:26.172Z,100.00
2023-03-06T01:15:54.412Z,100.00
2023-03-06T01:18:23.115Z,100.00
2023-03-06T01:20:51.330Z,100.00
2023-03-06T01:23:19.531Z,100.00
2023-03-06T01:25:48.678Z,100.00
2023-03-06T01:28:16.945Z,100.00
2023-03-06T01:30:45.090Z,100.00
2023-03-06T01:33:13.342Z,100.00
2023-03-06T01:35:41.581Z,100.00
2023-03-06T01:38:10.238Z,100.00
2023-03-06T01:40:39.221Z,100.00
2023-03-06T01:43:35.070Z,100.00
2023-03-06T01:46:21.575Z,100.00
2023-03-06T01:48:55.108Z,100.00
2023-03-06T01:51:27.168Z,100.00
2023-03-06T01:53:57.906Z,100.00
2023-03-06T01:56:27.064Z,100.00
2023-03-06T01:58:55.481Z,100.00
2023-03-06T02:01:24.629Z,100.00
2023-03-06T02:03:55.689Z,100.00
2023-03-06T02:06:24.188Z,100.00
2023-03-06T02:08:53.511Z,100.00
2023-03-06T02:11:24.550Z,100.00
2023-03-06T02:13:54.870Z,100.00
2023-03-06T02:16:27.821Z,100.00
2023-03-06T02:18:58.180Z,100.00
2023-03-06T02:21:32.237Z,100.00
2023-03-06T02:24:17.239Z,100.00
2023-03-06T02:26:47.886Z,100.00
2023-03-06T02:29:23.012Z,100.00
2023-03-06T02:31:51.587Z,100.00
2023-03-06T02:34:19.792Z,100.00
2023-03-06T02:36:51.543Z,100.00
2023-03-06T02:39:24.170Z,100.00
2023-03-06T02:41:52.935Z,100.00
2023-03-06T02:44:23.530Z,100.00
2023-03-06T02:46:51.709Z,100.00
2023-03-06T02:49:19.899Z,100.00
2023-03-06T02:51:48.222Z,100.00
2023-03-06T02:54:18.564Z,100.00
2023-03-06T02:56:47.193Z,100.00
2023-03-06T02:59:15.504Z,100.00
2023-03-06T03:01:43.834Z,100.00
2023-03-06T03:04:12.197Z,100.00
2023-03-06T03:06:41.308Z,100.00
2023-03-06T03:09:09.891Z,100.00
2023-03-06T03:11:38.180Z,100.00
2023-03-06T03:14:07.720Z,100.00
2023-03-06T03:16:37.532Z,100.00
2023-03-06T03:19:07.432Z,100.00
2023-03-06T03:21:35.908Z,100.00
2023-03-06T03:24:04.653Z,100.00
2023-03-06T03:26:32.891Z,100.00
2023-03-06T03:29:05.457Z,100.00
2023-03-06T03:31:34.195Z,100.00
2023-03-06T03:34:02.866Z,100.00
2023-03-06T03:36:33.360Z,100.00
2023-03-06T03:39:01.866Z,100.00
2023-03-06T03:41:31.300Z,100.00
2023-03-06T03:44:00.500Z,100.00
2023-03-06T03:46:29.706Z,100.00
2023-03-06T03:48:58.792Z,100.00
2023-03-06T03:51:28.010Z,100.00
2023-03-06T03:53:58.257Z,100.00
2023-03-06T03:56:29.250Z,100.00
2023-03-06T03:59:04.631Z,100.00
2023-03-06T04:01:39.701Z,100.00
2023-03-06T04:04:08.780Z,100.00
2023-03-06T04:06:38.783Z,100.00
2023-03-06T04:09:07.454Z,100.00
2023-03-06T04:11:36.385Z,100.00
2023-03-06T04:14:05.268Z,100.00
2023-03-06T04:16:34.914Z,100.00
2023-03-06T04:19:03.685Z,100.00
2023-03-06T04:21:32.691Z,100.00
2023-03-06T04:24:01.816Z,100.00
2023-03-06T04:26:30.502Z,100.00
2023-03-06T04:28:59.140Z,100.00
2023-03-06T04:31:27.801Z,100.00
2023-03-06T04:33:56.171Z,100.00
2023-03-06T04:36:30.776Z,100.00
2023-03-06T04:39:03.447Z,100.00
2023-03-06T04:41:34.028Z,100.00
2023-03-06T04:44:02.247Z,100.00
2023-03-06T04:46:30.496Z,100.00
2023-03-06T04:48:58.846Z,100.00
2023-03-06T04:51:27.946Z,100.00
2023-03-06T04:53:56.982Z,100.00
2023-03-06T04:56:25.910Z,100.00
2023-03-06T04:58:54.162Z,100.00
2023-03-06T05:01:22.683Z,100.00
2023-03-06T05:03:50.932Z,100.00
2023-03-06T05:06:19.381Z,100.00
2023-03-06T05:08:48.034Z,100.00
2023-03-06T05:11:16.904Z,100.00
2023-03-06T05:13:45.187Z,100.00
2023-03-06T05:16:13.493Z,100.00
2023-03-06T05:18:42.577Z,100.00
2023-03-06T05:21:11.450Z,100.00
2023-03-06T05:23:39.752Z,100.00
2023-03-06T05:26:12.184Z,100.00
2023-03-06T05:28:41.058Z,100.00
2023-03-06T05:31:09.751Z,100.00
2023-03-06T05:33:38.077Z,100.00
2023-03-06T05:36:08.717Z,100.00
2023-03-06T05:38:37.029Z,100.00
2023-03-06T05:41:05.614Z,100.00
2023-03-06T05:43:35.288Z,100.00
2023-03-06T05:46:05.247Z,100.00
2023-03-06T05:48:34.586Z,100.00
2023-03-06T05:51:04.348Z,100.00
2023-03-06T05:53:33.228Z,100.00
2023-03-06T05:56:07.216Z,100.00
2023-03-06T05:58:35.833Z,100.00
2023-03-06T06:01:16.157Z,100.00
2023-03-06T06:03:45.259Z,100.00
2023-03-06T06:06:15.385Z,100.00
2023-03-06T06:08:44.118Z,100.00
2023-03-06T06:11:13.755Z,100.00
2023-03-06T06:13:42.335Z,100.00
2023-03-06T06:16:15.967Z,100.00
2023-03-06T06:18:44.437Z,100.00
2023-03-06T06:21:14.966Z,100.00
2023-03-06T06:23:43.542Z,100.00
2023-03-06T06:26:12.260Z,100.00
2023-03-06T06:28:40.915Z,100.00
2023-03-06T06:31:12.511Z,100.00
2023-03-06T06:33:41.473Z,100.00
2023-03-06T06:36:20.486Z,100.00
2023-03-06T06:38:49.699Z,100.00
2023-03-06T06:41:51.085Z,100.00
2023-03-06T06:44:09.017Z,100.00
2023-03-06T06:49:26.642Z,100.00
2023-03-06T06:51:55.054Z,100.00
2023-03-06T06:54:23.350Z,100.00
2023-03-06T06:56:51.946Z,100.00
2023-03-06T06:59:23.788Z,100.00
2023-03-06T07:01:54.331Z,100.00
2023-03-06T07:04:24.238Z,100.00
2023-03-06T07:06:56.014Z,100.00
2023-03-06T07:09:24.318Z,100.00
2023-03-06T07:11:53.810Z,100.00
2023-03-06T07:14:23.192Z,99.78
2023-03-06T07:16:51.572Z,97.85
2023-03-06T07:19:19.905Z,95.18
2023-03-06T07:21:48.257Z,93.04
2023-03-06T07:24:17.378Z,91.78
2023-03-06T07:26:48.769Z,90.09
2023-03-06T07:29:17.595Z,90.46
2023-03-06T07:31:47.101Z,89.59
2023-03-06T07:34:15.597Z,88.77
2023-03-06T07:36:43.832Z,87.34
2023-03-06T07:39:14.911Z,87.29
2023-03-06T07:41:43.119Z,88.39
2023-03-06T07:44:11.316Z,87.96
2023-03-06T07:46:40.435Z,87.39
2023-03-06T07:49:10.310Z,84.89
2023-03-06T07:51:38.469Z,83.65
2023-03-06T07:54:06.754Z,84.16
2023-03-06T07:56:35.270Z,85.01
2023-03-06T07:59:04.241Z,83.67
2023-03-06T08:01:33.345Z,83.09
2023-03-06T08:04:02.266Z,84.41
2023-03-06T08:06:30.568Z,83.26
2023-03-06T08:09:01.680Z,83.28
2023-03-06T08:11:31.264Z,82.00
2023-03-06T08:13:59.974Z,80.11
2023-03-06T08:16:30.493Z,80.44
2023-03-06T08:19:00.107Z,79.56
2023-03-06T08:21:29.323Z,78.89
2023-03-06T08:23:57.634Z,79.32
2023-03-06T08:29:15.799Z,80.25
2023-03-06T08:31:46.939Z,80.37
2023-03-06T08:34:19.207Z,80.62
2023-03-06T08:36:47.570Z,81.00
2023-03-06T08:39:15.858Z,81.18
2023-03-06T08:41:44.244Z,81.20
2023-03-06T08:44:12.696Z,82.20
2023-03-06T08:46:45.719Z,82.38
2023-03-06T08:49:14.236Z,82.84
2023-03-06T08:51:43.195Z,82.90
2023-03-06T08:54:13.406Z,82.17
2023-03-06T08:56:42.208Z,82.44
2023-03-06T08:59:13.384Z,82.64
2023-03-06T09:01:41.831Z,81.80
2023-03-06T09:04:12.005Z,81.83
2023-03-06T09:06:42.618Z,79.43
2023-03-06T09:09:12.081Z,74.81
2023-03-06T09:11:41.485Z,73.32
2023-03-06T09:14:10.033Z,72.44
2023-03-06T09:16:38.828Z,70.80
2023-03-06T09:19:08.248Z,71.58
2023-03-06T09:21:36.500Z,70.40
2023-03-06T09:24:04.953Z,69.83
2023-03-06T09:26:45.151Z,71.82
2023-03-06T09:29:16.578Z,68.69
2023-03-06T09:31:45.594Z,67.63
2023-03-06T09:34:13.772Z,66.58
2023-03-06T09:36:55.606Z,65.21
2023-03-06T09:39:26.626Z,64.21
2023-03-06T09:41:56.878Z,62.49
2023-03-06T09:44:29.428Z,60.97
2023-03-06T09:47:18.874Z,59.57
2023-03-06T09:50:09.979Z,59.75
2023-03-06T09:52:57.376Z,60.03
2023-03-06T09:55:29.200Z,59.15
2023-03-06T09:58:11.300Z,60.34
2023-03-06T10:01:36.165Z,59.06
2023-03-06T10:04:12.411Z,59.14
2023-03-06T10:06:55.256Z,59.69
2023-03-06T10:09:43.104Z,58.92
2023-03-06T10:12:24.772Z,58.30
2023-03-06T10:15:09.003Z,58.03
2023-03-06T10:17:42.066Z,57.36
2023-03-06T10:20:37.594Z,57.09
2023-03-06T10:23:24.974Z,57.13
2023-03-06T10:26:01.750Z,56.35
2023-03-06T10:28:41.475Z,57.14
2023-03-06T10:31:20.865Z,57.08
2023-03-06T10:34:17.947Z,56.98
2023-03-06T10:36:46.387Z,57.84
2023-03-06T10:39:18.055Z,57.11
2023-03-06T10:41:47.392Z,57.07
2023-03-06T10:44:15.674Z,56.68
2023-03-06T10:46:48.917Z,55.78
2023-03-06T10:49:27.582Z,55.00
2023-03-06T10:52:19.651Z,56.04
2023-03-06T10:54:49.004Z,56.21
2023-03-06T10:57:21.405Z,55.16
2023-03-06T10:59:58.500Z,54.00
2023-03-06T11:02:37.931Z,53.41
2023-03-06T11:05:18.219Z,53.28
2023-03-06T11:08:00.802Z,52.91
2023-03-06T11:10:32.240Z,52.28
2023-03-06T11:13:07.736Z,51.88
2023-03-06T11:15:36.833Z,51.38
2023-03-06T11:18:27.993Z,52.17
2023-03-06T11:20:57.913Z,51.86
2023-03-06T11:23:39.254Z,51.65
2023-03-06T11:26:39.256Z,51.72
2023-03-06T11:29:22.860Z,51.31
2023-03-06T11:32:04.312Z,51.02
2023-03-06T11:34:49.938Z,51.21
2023-03-06T11:37:34.311Z,50.91
2023-03-06T11:40:12.006Z,49.74
2023-03-06T11:42:47.792Z,49.99
2023-03-06T11:45:46.932Z,50.11
2023-03-06T11:48:15.588Z,50.47
2023-03-06T11:50:51.577Z,50.22
2023-03-06T11:53:22.573Z,49.96
2023-03-06T11:56:24.146Z,50.22
2023-03-06T11:59:07.940Z,49.84
2023-03-06T12:02:01.453Z,50.51
2023-03-06T12:05:07.081Z,50.67
2023-03-06T12:07:41.309Z,50.18
2023-03-06T12:10:29.235Z,50.15
2023-03-06T12:13:30.139Z,49.57
2023-03-06T12:16:17.430Z,49.81
2023-03-06T12:19:03.806Z,52.31
2023-03-06T12:21:45.043Z,53.78
2023-03-06T12:24:41.226Z,54.64
2023-03-06T12:27:33.559Z,54.75
2023-03-06T12:30:40.437Z,55.33
2023-03-06T12:33:40.827Z,55.80
2023-03-06T12:36:11.847Z,55.62
2023-03-06T12:38:43.228Z,56.48
2023-03-06T12:41:33.588Z,56.84
2023-03-06T12:44:11.083Z,56.86
2023-03-06T12:46:47.260Z,58.34
2023-03-06T12:49:39.079Z,58.35
2023-03-06T12:52:09.810Z,57.86
2023-03-06T12:54:41.343Z,57.46
2023-03-06T12:57:12.520Z,57.43
2023-03-06T12:59:48.116Z,57.58
2023-03-06T13:02:38.106Z,57.23
2023-03-06T13:05:22.510Z,57.07
2023-03-06T13:08:15.771Z,56.90
2023-03-06T13:11:02.637Z,56.77
2023-03-06T13:13:48.499Z,56.91
2023-03-06T13:16:29.367Z,56.57
2023-03-06T13:19:18.463Z,56.60
2023-03-06T13:21:50.978Z,55.55
2023-03-06T13:24:27.006Z,54.90
2023-03-06T13:27:04.935Z,55.07
2023-03-06T13:29:36.378Z,54.80
2023-03-06T13:32:19.048Z,55.78
2023-03-06T13:34:50.157Z,56.08
2023-03-06T13:37:23.497Z,55.55
2023-03-06T13:40:00.671Z,55.85
2023-03-06T13:42:30.688Z,56.36
2023-03-06T13:45:27.131Z,57.49
2023-03-06T13:48:37.550Z,58.18
2023-03-06T13:50:49.979Z,58.28
2023-03-06T13:53:36.570Z,59.17
2023-03-06T13:56:26.597Z,60.09
2023-03-06T13:59:28.435Z,60.34
2023-03-06T14:02:20.217Z,60.91
2023-03-06T14:05:10.633Z,60.90
2023-03-06T14:07:44.486Z,61.08
2023-03-06T14:10:25.592Z,62.04
2023-03-06T14:13:32.333Z,61.31
2023-03-06T14:16:17.614Z,61.09
2023-03-06T14:18:50.211Z,59.47
2023-03-06T14:21:31.182Z,59.58
2023-03-06T14:24:04.444Z,59.99
2023-03-06T14:26:40.976Z,59.39
2023-03-06T14:29:24.549Z,60.23
2023-03-06T14:31:55.839Z,61.40
2023-03-06T14:34:26.108Z,61.94
2023-03-06T14:37:00.861Z,61.32
2023-03-06T14:39:39.026Z,61.84
2023-03-06T14:42:28.400Z,63.23
2023-03-06T14:45:18.769Z,64.67
2023-03-06T14:47:53.030Z,65.10
2023-03-06T14:50:34.227Z,65.44
2023-03-06T14:53:23.246Z,66.02
2023-03-06T14:56:05.067Z,66.24
2023-03-06T14:59:00.042Z,65.93
2023-03-06T15:01:41.674Z,67.11
2023-03-06T15:04:44.731Z,68.89
2023-03-06T15:07:23.489Z,68.29
2023-03-06T15:09:55.259Z,68.69
2023-03-06T15:12:23.650Z,68.62
2023-03-06T15:15:27.237Z,68.74
2023-03-06T15:17:55.560Z,69.48
2023-03-06T15:21:00.721Z,69.77
2023-03-06T15:23:36.951Z,70.41
2023-03-06T15:26:20.760Z,71.12
2023-03-06T15:29:22.349Z,71.75
2023-03-06T15:31:50.835Z,72.99
2023-03-06T15:34:23.872Z,73.89
2023-03-06T15:36:57.512Z,74.66
2023-03-06T15:39:31.925Z,75.45
2023-03-06T15:42:16.819Z,76.05
2023-03-06T15:45:00.554Z,77.07
2023-03-06T15:47:29.058Z,78.05
2023-03-06T15:49:57.768Z,78.32
2023-03-06T15:52:29.215Z,78.78
2023-03-06T15:54:58.697Z,79.86
2023-03-06T15:57:32.727Z,80.28
2023-03-06T16:00:02.499Z,80.81
2023-03-06T16:02:39.782Z,81.31
2023-03-06T16:05:16.632Z,81.46
2023-03-06T16:07:46.885Z,81.70
2023-03-06T16:10:18.955Z,82.19
2023-03-06T16:12:51.623Z,82.37
2023-03-06T16:15:23.928Z,82.50
2023-03-06T16:17:52.236Z,82.53
2023-03-06T16:20:23.362Z,82.99
2023-03-06T16:22:53.833Z,82.98
2023-03-06T16:25:24.662Z,83.17
2023-03-06T16:27:58.373Z,83.33
2023-03-06T16:30:29.978Z,83.17
2023-03-06T16:32:59.479Z,83.10
2023-03-06T16:35:28.203Z,83.17
2023-03-06T16:37:56.520Z,83.50
2023-03-06T16:43:13.722Z,83.86
2023-03-06T16:45:42.520Z,84.62
2023-03-06T16:48:15.978Z,86.17
2023-03-06T16:50:44.912Z,85.65
2023-03-06T16:53:14.125Z,85.35
2023-03-06T16:55:42.620Z,85.05
2023-03-06T16:58:11.381Z,84.78
2023-03-06T17:00:41.020Z,84.38
2023-03-06T17:03:09.548Z,83.84
2023-03-06T17:05:39.157Z,83.51
2023-03-06T17:08:07.525Z,83.35
2023-03-06T17:10:35.911Z,83.29
2023-03-06T17:13:05.460Z,83.07
2023-03-06T17:15:33.748Z,82.94
2023-03-06T17:18:02.236Z,82.74
2023-03-06T17:20:31.080Z,82.59
2023-03-06T17:22:59.225Z,82.33
2023-03-06T17:25:27.583Z,82.01
2023-03-06T17:27:55.866Z,81.82
2023-03-06T17:30:24.072Z,81.86
2023-03-06T17:32:53.904Z,82.24
2023-03-06T17:35:22.195Z,82.52
2023-03-06T17:37:51.531Z,82.93
2023-03-06T17:40:22.744Z,83.25
2023-03-06T17:42:53.471Z,83.72
2023-03-06T17:45:21.737Z,84.21
2023-03-06T17:47:56.336Z,84.62
2023-03-06T17:50:26.753Z,85.12
2023-03-06T17:52:55.058Z,85.55
2023-03-06T17:55:23.260Z,85.81
2023-03-06T17:57:53.323Z,86.17
2023-03-06T18:00:23.195Z,86.51
2023-03-06T18:02:51.637Z,86.96
2023-03-06T18:05:25.009Z,87.69
2023-03-06T18:07:56.999Z,88.66
2023-03-06T18:10:25.314Z,88.93
2023-03-06T18:12:53.697Z,89.68
2023-03-06T18:15:22.613Z,88.98
2023-03-06T18:17:53.111Z,90.81
2023-03-06T18:20:23.797Z,93.10
2023-03-06T18:22:55.212Z,92.37
2023-03-06T18:25:24.723Z,93.94
2023-03-06T18:27:53.006Z,95.06
2023-03-06T18:30:22.776Z,95.07
2023-03-06T18:32:51.990Z,96.52
2023-03-06T18:35:21.272Z,95.96
2023-03-06T18:37:50.315Z,96.84
2023-03-06T18:40:19.490Z,97.27
2023-03-06T18:42:53.020Z,97.73
2023-03-06T18:45:23.161Z,97.65
2023-03-06T18:47:54.920Z,97.35
2023-03-06T18:50:24.834Z,99.51
2023-03-06T18:52:54.479Z,99.66
2023-03-06T18:55:25.650Z,98.63
2023-03-06T18:57:53.976Z,98.58
2023-03-06T19:00:22.940Z,98.61
2023-03-06T19:02:56.125Z,97.44
2023-03-06T19:05:25.571Z,99.51
2023-03-06T19:07:54.434Z,99.94
2023-03-06T19:10:22.755Z,99.38
2023-03-06T19:12:53.562Z,99.76
2023-03-06T19:15:21.777Z,99.81
2023-03-06T19:17:51.674Z,98.68
2023-03-06T19:20:19.923Z,99.47
2023-03-06T19:22:48.048Z,100.00
2023-03-06T19:25:16.566Z,100.00
2023-03-06T19:27:46.435Z,100.00
2023-03-06T19:30:15.673Z,100.00
2023-03-06T19:32:46.885Z,100.00
2023-03-06T19:35:15.148Z,100.00
2023-03-06T19:37:43.815Z,100.00
2023-03-06T19:40:13.021Z,100.00
2023-03-06T19:42:41.514Z,100.00
2023-03-06T19:45:11.593Z,100.00
2023-03-06T19:47:40.630Z,100.00
2023-03-06T19:50:09.644Z,100.00
2023-03-06T19:52:39.465Z,100.00
2023-03-06T19:55:09.784Z,100.00
2023-03-06T19:57:38.029Z,100.00
2023-03-06T20:00:06.866Z,100.00
2023-03-06T20:02:40.877Z,100.00
2023-03-06T20:05:09.441Z,100.00
2023-03-06T20:07:38.053Z,100.00
2023-03-06T20:10:06.634Z,100.00
2023-03-06T20:12:35.838Z,100.00
2023-03-06T20:15:04.825Z,100.00
2023-03-06T20:17:34.426Z,100.00
2023-03-06T20:20:03.209Z,100.00
2023-03-06T20:22:32.305Z,100.00
2023-03-06T20:25:00.567Z,100.00
2023-03-06T20:27:28.768Z,100.00
2023-03-06T20:29:57.209Z,100.00
2023-03-06T20:32:25.583Z,100.00
2023-03-06T20:34:53.758Z,100.00
2023-03-06T20:37:22.086Z,100.00
2023-03-06T20:39:57.136Z,100.00
2023-03-06T20:42:25.504Z,100.00
2023-03-06T20:44:56.512Z,100.00
2023-03-06T20:47:25.932Z,100.00
2023-03-06T20:49:54.328Z,100.00
2023-03-06T20:52:22.515Z,100.00
2023-03-06T20:54:51.589Z,100.00
2023-03-06T20:57:19.898Z,100.00
2023-03-06T20:59:48.056Z,100.00
2023-03-06T21:02:16.302Z,100.00
2023-03-06T21:04:44.930Z,100.00
2023-03-06T21:07:13.260Z,100.00
2023-03-06T21:09:44.747Z,100.00
2023-03-06T21:12:12.946Z,100.00
2023-03-06T21:14:41.120Z,100.00
2023-03-06T21:17:09.310Z,100.00
2023-03-06T21:19:37.529Z,100.00
2023-03-06T21:22:06.661Z,100.00
2023-03-06T21:24:36.275Z,100.00
2023-03-06T21:27:04.604Z,100.00
2023-03-06T21:29:32.755Z,100.00
2023-03-06T21:32:00.954Z,100.00
2023-03-06T21:34:29.186Z,100.00
2023-03-06T21:36:57.968Z,100.00
2023-03-06T21:39:26.189Z,100.00
2023-03-06T21:41:54.365Z,100.00
2023-03-06T21:44:22.581Z,100.00
2023-03-06T21:46:50.830Z,100.00
2023-03-06T21:49:19.038Z,100.00
2023-03-06T21:51:48.223Z,100.00
2023-03-06T21:54:16.439Z,100.00
2023-03-06T21:56:44.779Z,100.00
2023-03-06T21:59:14.611Z,100.00
2023-03-06T22:01:42.895Z,100.00
2023-03-06T22:04:11.071Z,100.00
2023-03-06T22:06:40.827Z,100.00
2023-03-06T22:09:10.090Z,100.00
2023-03-06T22:11:38.238Z,100.00
2023-03-06T22:14:06.807Z,100.00
2023-03-06T22:16:35.071Z,100.00
2023-03-06T22:19:03.597Z,100.00
2023-03-06T22:21:31.967Z,100.00
2023-03-06T22:24:00.215Z,100.00
2023-03-06T22:26:29.742Z,100.00
2023-03-06T22:28:58.050Z,100.00
2023-03-06T22:31:28.799Z,100.00
2023-03-06T22:34:00.326Z,100.00
2023-03-06T22:36:32.869Z,100.00
2023-03-06T22:39:03.540Z,100.00
2023-03-06T22:41:32.640Z,100.00
2023-03-06T22:44:02.411Z,100.00
2023-03-06T22:46:32.350Z,100.00
2023-03-06T22:49:01.307Z,100.00
2023-03-06T22:51:29.802Z,100.00
2023-03-06T22:53:58.405Z,100.00
2023-03-06T22:56:27.393Z,100.00
2023-03-06T22:58:55.746Z,100.00
2023-03-06T23:01:29.440Z,100.00
2023-03-06T23:04:00.706Z,100.00
2023-03-06T23:06:35.482Z,100.00
2023-03-06T23:09:08.601Z,100.00
2023-03-06T23:11:55.773Z,100.00
2023-03-06T23:14:45.017Z,100.00
2023-03-06T23:17:32.311Z,100.00
2023-03-06T23:20:20.967Z,100.00
2023-03-06T23:23:08.049Z,100.00
2023-03-06T23:25:42.795Z,100.00
2023-03-06T23:28:12.204Z,100.00
2023-03-06T23:30:41.490Z,100.00
2023-03-06T23:33:10.723Z,100.00
2023-03-06T23:35:39.423Z,100.00
2023-03-06T23:38:09.440Z,100.00
2023-03-06T23:40:38.566Z,100.00
2023-03-06T23:43:07.073Z,100.00
2023-03-06T23:45:35.225Z,100.00
2023-03-06T23:48:06.949Z,100.00
2023-03-06T23:50:35.113Z,100.00
2023-03-06T23:53:03.659Z,100.00
2023-03-06T23:55:31.863Z,100.00
2023-03-06T23:58:01.610Z,100.00
